N179LJ RJAA-KLAS
Flight info
| Callsign | N179LJ |
|---|---|
| Flight time | N/A |
| Altitude | 35000 |
| Route | BORLO Y830 LAPIL OTR13 SEALS 36N150E 38N160E 39N170E 40N180E 41N170W/N0457F370 42N160W 42N150W 42N140W/N0458F390 41N130W DCT TRYSH DCT PEBLL DCT MRRLO DCT INYOE DCT KENNO DCT FLCHR COKTL4 |
| Aircraft | A333/H-SDE3GHIJ2J3J5M1RVWXY/LB2D1 |
Departure
| Time | N/A |
|---|---|
| Airport | Narita International Airport (RJAA) |
Arrival
| Time | 2026-05-01 15:06 |
|---|---|
| Airport | Harry Reid International Airport (KLAS) |
| Time | Latitude | Longitude | Altitude | Speed | Heading |
|---|---|---|---|---|---|
| 2026-05-01 14:19 | 38.45345 | -120.81667 | 35018 ft | 521 kts | 107° |
| 2026-05-01 14:19 | 38.43060 | -120.72933 | 35025 ft | 521 kts | 107° |
| 2026-05-01 14:20 | 38.39612 | -120.59810 | 35072 ft | 522 kts | 107° |
| 2026-05-01 14:21 | 38.37294 | -120.51025 | 35115 ft | 522 kts | 107° |
| 2026-05-01 14:21 | 38.34978 | -120.42283 | 35121 ft | 522 kts | 107° |
| 2026-05-01 14:22 | 38.31486 | -120.29148 | 35163 ft | 523 kts | 108° |
| 2026-05-01 14:22 | 38.29142 | -120.20374 | 35189 ft | 523 kts | 108° |
| 2026-05-01 14:23 | 38.26778 | -120.11556 | 35192 ft | 524 kts | 108° |
| 2026-05-01 14:23 | 38.24431 | -120.02829 | 35202 ft | 524 kts | 108° |
| 2026-05-01 14:24 | 38.22055 | -119.94026 | 35223 ft | 525 kts | 108° |
| 2026-05-01 14:24 | 38.19687 | -119.85277 | 35228 ft | 525 kts | 107° |
| 2026-05-01 14:25 | 38.17298 | -119.76486 | 35233 ft | 526 kts | 107° |
| 2026-05-01 14:25 | 38.14901 | -119.67693 | 35256 ft | 525 kts | 107° |
| 2026-05-01 14:26 | 38.11312 | -119.54585 | 35254 ft | 525 kts | 107° |
| 2026-05-01 14:27 | 38.08904 | -119.45823 | 35258 ft | 525 kts | 107° |
| 2026-05-01 14:27 | 38.06484 | -119.37056 | 35258 ft | 526 kts | 107° |
| 2026-05-01 14:28 | 38.02845 | -119.23919 | 35259 ft | 526 kts | 108° |
| 2026-05-01 14:28 | 38.00407 | -119.15153 | 35246 ft | 527 kts | 108° |
| 2026-05-01 14:29 | 37.97980 | -119.06458 | 35264 ft | 527 kts | 108° |
| 2026-05-01 14:30 | 37.93071 | -118.88953 | 35244 ft | 527 kts | 108° |
| 2026-05-01 14:31 | 37.89308 | -118.75825 | 35231 ft | 530 kts | 112° |
| 2026-05-01 14:31 | 37.85929 | -118.67456 | 35255 ft | 531 kts | 116° |
| 2026-05-01 14:32 | 37.82569 | -118.59137 | 35232 ft | 530 kts | 116° |
| 2026-05-01 14:32 | 37.79196 | -118.50787 | 35209 ft | 532 kts | 116° |
| 2026-05-01 14:33 | 37.75832 | -118.42484 | 35233 ft | 533 kts | 116° |
| 2026-05-01 14:33 | 37.72420 | -118.34084 | 35220 ft | 532 kts | 116° |
| 2026-05-01 14:34 | 37.69031 | -118.25764 | 35203 ft | 532 kts | 116° |
| 2026-05-01 14:34 | 37.65661 | -118.17512 | 35208 ft | 533 kts | 116° |
| 2026-05-01 14:35 | 37.62799 | -118.10523 | 35215 ft | 532 kts | 116° |
| 2026-05-01 14:35 | 37.59374 | -118.02174 | 35202 ft | 533 kts | 116° |
| 2026-05-01 14:36 | 37.55953 | -117.93861 | 35195 ft | 534 kts | 116° |
| 2026-05-01 14:36 | 37.52501 | -117.85491 | 35195 ft | 534 kts | 116° |
| 2026-05-01 14:37 | 37.49034 | -117.77107 | 35202 ft | 536 kts | 116° |
| 2026-05-01 14:37 | 37.45567 | -117.68747 | 35203 ft | 536 kts | 116° |
| 2026-05-01 14:38 | 37.42096 | -117.60400 | 35199 ft | 537 kts | 116° |
| 2026-05-01 14:38 | 37.38638 | -117.52106 | 35199 ft | 536 kts | 116° |
| 2026-05-01 14:39 | 37.35160 | -117.43784 | 35196 ft | 538 kts | 116° |
| 2026-05-01 14:39 | 37.31694 | -117.35510 | 35195 ft | 538 kts | 116° |
| 2026-05-01 14:40 | 37.28124 | -117.27255 | 35189 ft | 537 kts | 119° |
| 2026-05-01 14:40 | 37.24404 | -117.19062 | 35180 ft | 539 kts | 118° |
| 2026-05-01 14:41 | 37.20677 | -117.10847 | 35174 ft | 539 kts | 118° |
| 2026-05-01 14:41 | 37.16954 | -117.02658 | 35168 ft | 540 kts | 118° |
| 2026-05-01 14:42 | 37.13229 | -116.94482 | 35173 ft | 538 kts | 118° |
| 2026-05-01 14:42 | 37.09094 | -116.86707 | 35150 ft | 539 kts | 135° |
| 2026-05-01 14:42 | 37.06156 | -116.83757 | 35190 ft | 535 kts | 150° |
| 2026-05-01 14:43 | 37.02951 | -116.81336 | 35186 ft | 537 kts | 149° |
| 2026-05-01 14:43 | 36.99862 | -116.78748 | 34865 ft | 536 kts | 148° |
| 2026-05-01 14:43 | 36.96787 | -116.76128 | 34000 ft | 539 kts | 147° |
| 2026-05-01 14:43 | 36.93666 | -116.73456 | 33403 ft | 537 kts | 147° |
| 2026-05-01 14:44 | 36.90605 | -116.70834 | 32690 ft | 538 kts | 147° |
| 2026-05-01 14:44 | 36.84393 | -116.65523 | 31208 ft | 538 kts | 147° |
| 2026-05-01 14:44 | 36.81354 | -116.62926 | 30731 ft | 532 kts | 147° |
| 2026-05-01 14:45 | 36.78257 | -116.60284 | 30109 ft | 530 kts | 147° |
| 2026-05-01 14:45 | 36.72183 | -116.55109 | 29054 ft | 521 kts | 147° |
| 2026-05-01 14:45 | 36.69163 | -116.52538 | 28506 ft | 518 kts | 147° |
| 2026-05-01 14:46 | 36.66167 | -116.49980 | 27814 ft | 517 kts | 145° |
| 2026-05-01 14:46 | 36.61192 | -116.43593 | 26731 ft | 508 kts | 130° |
| 2026-05-01 14:46 | 36.58882 | -116.40311 | 26237 ft | 502 kts | 130° |
| 2026-05-01 14:47 | 36.56583 | -116.37054 | 25750 ft | 497 kts | 130° |
| 2026-05-01 14:47 | 36.54280 | -116.33800 | 25256 ft | 491 kts | 130° |
| 2026-05-01 14:47 | 36.52038 | -116.30637 | 24739 ft | 486 kts | 130° |
| 2026-05-01 14:48 | 36.48451 | -116.25583 | 23862 ft | 478 kts | 130° |
| 2026-05-01 14:48 | 36.45274 | -116.21111 | 23440 ft | 462 kts | 130° |
| 2026-05-01 14:49 | 36.41020 | -116.15134 | 22381 ft | 455 kts | 130° |
| 2026-05-01 14:49 | 36.36859 | -116.09301 | 21324 ft | 448 kts | 130° |
| 2026-05-01 14:50 | 36.34117 | -116.05460 | 20628 ft | 441 kts | 130° |
| 2026-05-01 14:50 | 36.28743 | -115.97948 | 19283 ft | 427 kts | 130° |
| 2026-05-01 14:51 | 36.26787 | -115.95218 | 19208 ft | 410 kts | 130° |
| 2026-05-01 14:51 | 36.23246 | -115.89947 | 19119 ft | 377 kts | 126° |
| 2026-05-01 14:52 | 36.20137 | -115.85001 | 19092 ft | 349 kts | 126° |
| 2026-05-01 14:52 | 36.18630 | -115.82610 | 19099 ft | 345 kts | 126° |
| 2026-05-01 14:52 | 36.15645 | -115.77889 | 18813 ft | 352 kts | 126° |
| 2026-05-01 14:53 | 36.14153 | -115.75481 | 18391 ft | 352 kts | 122° |
| 2026-05-01 14:53 | 36.13118 | -115.72738 | 17991 ft | 347 kts | 106° |
| 2026-05-01 14:53 | 36.12286 | -115.69908 | 17584 ft | 346 kts | 108° |
| 2026-05-01 14:53 | 36.11427 | -115.67112 | 17220 ft | 344 kts | 108° |
| 2026-05-01 14:54 | 36.10561 | -115.64297 | 16689 ft | 347 kts | 108° |
| 2026-05-01 14:54 | 36.09706 | -115.61523 | 16279 ft | 347 kts | 108° |
| 2026-05-01 14:54 | 36.08843 | -115.58721 | 15832 ft | 346 kts | 108° |
| 2026-05-01 14:54 | 36.07972 | -115.55902 | 15385 ft | 346 kts | 108° |
| 2026-05-01 14:55 | 36.07118 | -115.53135 | 14944 ft | 346 kts | 108° |
| 2026-05-01 14:55 | 36.06247 | -115.50320 | 14479 ft | 346 kts | 108° |
| 2026-05-01 14:55 | 36.05388 | -115.47546 | 13994 ft | 347 kts | 108° |
| 2026-05-01 14:55 | 36.04527 | -115.44765 | 13508 ft | 347 kts | 108° |
| 2026-05-01 14:56 | 36.03660 | -115.41972 | 13021 ft | 346 kts | 108° |
| 2026-05-01 14:56 | 36.02795 | -115.39185 | 12541 ft | 345 kts | 108° |
| 2026-05-01 14:56 | 36.01940 | -115.36424 | 12054 ft | 342 kts | 107° |
| 2026-05-01 14:56 | 36.01502 | -115.33621 | 11557 ft | 328 kts | 90° |
| 2026-05-01 14:57 | 36.01400 | -115.30823 | 11077 ft | 320 kts | 91° |
| 2026-05-01 14:57 | 36.01135 | -115.25442 | 10143 ft | 305 kts | 91° |
| 2026-05-01 14:57 | 36.01009 | -115.22890 | 9955 ft | 289 kts | 91° |
| 2026-05-01 14:58 | 36.00888 | -115.20454 | 9549 ft | 284 kts | 91° |
| 2026-05-01 14:58 | 36.00766 | -115.18020 | 9181 ft | 278 kts | 91° |
| 2026-05-01 14:58 | 36.00649 | -115.15695 | 9141 ft | 260 kts | 91° |
| 2026-05-01 14:58 | 36.00539 | -115.13513 | 9046 ft | 246 kts | 91° |
| 2026-05-01 14:59 | 36.00433 | -115.11389 | 9019 ft | 250 kts | 90° |
| 2026-05-01 14:59 | 36.00324 | -115.09233 | 8826 ft | 253 kts | 91° |
| 2026-05-01 14:59 | 36.00211 | -115.07038 | 8586 ft | 252 kts | 90° |
| 2026-05-01 14:59 | 36.00102 | -115.04889 | 8355 ft | 251 kts | 90° |
| 2026-05-01 15:00 | 35.99902 | -115.00602 | 7861 ft | 249 kts | 87° |
| 2026-05-01 15:00 | 35.99905 | -114.98456 | 7503 ft | 252 kts | 87° |
| 2026-05-01 15:00 | 35.99892 | -114.96252 | 7153 ft | 255 kts | 86° |
| 2026-05-01 15:01 | 35.99920 | -114.94079 | 6816 ft | 254 kts | 78° |
| 2026-05-01 15:01 | 36.00571 | -114.92090 | 6521 ft | 247 kts | 51° |
| 2026-05-01 15:01 | 36.01888 | -114.90769 | 6227 ft | 241 kts | 27° |
| 2026-05-01 15:01 | 36.03439 | -114.90180 | 5966 ft | 231 kts | 1° |
| 2026-05-01 15:02 | 36.04921 | -114.90627 | 5997 ft | 212 kts | 336° |
| 2026-05-01 15:02 | 36.05776 | -114.91183 | 5982 ft | 201 kts | 335° |
| 2026-05-01 15:02 | 36.07185 | -114.92537 | 5982 ft | 191 kts | 310° |
| 2026-05-01 15:02 | 36.07535 | -114.94116 | 6082 ft | 192 kts | 270° |
| 2026-05-01 15:03 | 36.07423 | -114.95777 | 5802 ft | 197 kts | 271° |
| 2026-05-01 15:03 | 36.07391 | -114.97474 | 5422 ft | 201 kts | 272° |
| 2026-05-01 15:03 | 36.07376 | -114.99186 | 5012 ft | 197 kts | 273° |
| 2026-05-01 15:03 | 36.07370 | -115.00815 | 4657 ft | 186 kts | 273° |
| 2026-05-01 15:04 | 36.07369 | -115.02387 | 4223 ft | 181 kts | 273° |
| 2026-05-01 15:04 | 36.07369 | -115.03923 | 3817 ft | 176 kts | 272° |
| 2026-05-01 15:04 | 36.07368 | -115.05400 | 3399 ft | 173 kts | 272° |
| 2026-05-01 15:04 | 36.07368 | -115.06870 | 2985 ft | 170 kts | 271° |
| 2026-05-01 15:05 | 36.07367 | -115.08310 | 2671 ft | 160 kts | 270° |
| 2026-05-01 15:05 | 36.07364 | -115.09622 | 2472 ft | 149 kts | 270° |
| 2026-05-01 15:05 | 36.07367 | -115.10887 | 2304 ft | 144 kts | 271° |
| 2026-05-01 15:05 | 36.07376 | -115.12111 | 2188 ft | 143 kts | 267° |
| 2026-05-01 15:06 | 36.07364 | -115.13347 | 2096 ft | 142 kts | 270° |
| 2026-05-01 15:06 | 36.07364 | -115.14366 | 2111 ft | 76 kts | 268° |
| 2026-05-01 15:06 | 36.07365 | -115.14642 | 2118 ft | 0 kts | 272° |
| 2026-05-01 15:06 | 36.07365 | -115.14643 | 2118 ft | 0 kts | 272° |
| 2026-05-01 15:07 | 36.07369 | -115.14713 | 2121 ft | 23 kts | 276° |